createdAt,value
2019-02-25T00:00:09.753Z,102448.13
2019-02-25T00:02:38.609Z,102457.48
2019-02-25T00:05:05.821Z,102451.45
2019-02-25T00:07:33.321Z,102449.69
2019-02-25T00:10:00.292Z,102447.53
2019-02-25T00:12:29.922Z,102447.08
2019-02-25T00:14:56.858Z,102443.67
2019-02-25T00:17:23.800Z,102449.72
2019-02-25T00:19:50.765Z,102451.81
2019-02-25T00:22:18.077Z,102445.80
2019-02-25T00:24:45.732Z,102454.67
2019-02-25T00:27:12.679Z,102451.52
2019-02-25T00:29:39.977Z,102451.79
2019-02-25T00:32:07.372Z,102450.06
2019-02-25T00:34:34.322Z,102448.30
2019-02-25T00:37:01.297Z,102445.80
2019-02-25T00:39:28.266Z,102442.88
2019-02-25T00:41:55.212Z,102438.67
2019-02-25T00:44:23.881Z,102435.59
2019-02-25T00:46:52.077Z,102423.09
2019-02-25T00:49:19.014Z,102430.32
2019-02-25T00:51:46.098Z,102432.58
2019-02-25T00:54:13.045Z,102432.26
2019-02-25T00:56:40.000Z,102437.52
2019-02-25T00:59:07.439Z,102440.53
2019-02-25T01:01:34.404Z,102437.08
2019-02-25T01:04:04.920Z,102435.38
2019-02-25T01:06:31.893Z,102445.82
2019-02-25T01:08:58.867Z,102443.61
2019-02-25T01:11:25.824Z,102442.20
2019-02-25T01:13:53.101Z,102435.24
2019-02-25T01:16:20.040Z,102434.92
2019-02-25T01:18:46.996Z,102443.64
2019-02-25T01:21:14.291Z,102445.92
2019-02-25T01:23:41.235Z,102447.06
2019-02-25T01:26:09.284Z,102439.77
2019-02-25T01:28:36.241Z,102439.38
2019-02-25T01:31:03.606Z,102437.72
2019-02-25T01:33:30.674Z,102430.89
2019-02-25T01:35:57.676Z,102427.91
2019-02-25T01:38:24.909Z,102434.70
2019-02-25T01:40:51.892Z,102427.88
2019-02-25T01:43:18.855Z,102424.50
2019-02-25T01:45:45.812Z,102430.41
2019-02-25T01:48:12.759Z,102427.03
2019-02-25T01:50:39.716Z,102429.44
2019-02-25T01:53:07.107Z,102431.89
2019-02-25T01:55:34.042Z,102427.71
2019-02-25T01:58:00.992Z,102430.80
2019-02-25T02:00:27.951Z,102428.42
2019-02-25T02:02:54.892Z,102432.77
2019-02-25T02:05:21.871Z,102431.09
2019-02-25T02:07:48.810Z,102437.97
2019-02-25T02:10:16.403Z,102439.30
2019-02-25T02:12:43.505Z,102434.19
2019-02-25T02:15:12.361Z,102430.82
2019-02-25T02:17:39.623Z,102433.31
2019-02-25T02:20:07.276Z,102431.21
2019-02-25T02:22:34.206Z,102425.63
2019-02-25T02:25:01.233Z,102420.98
2019-02-25T02:27:28.218Z,102429.98
2019-02-25T02:29:55.367Z,102435.10
2019-02-25T02:32:22.647Z,102431.19
2019-02-25T02:34:49.630Z,102437.95
2019-02-25T02:37:16.574Z,102438.31
2019-02-25T02:39:43.961Z,102436.13
2019-02-25T02:42:13.184Z,102442.08
2019-02-25T02:44:40.725Z,102438.96
2019-02-25T02:47:33.643Z,102437.56
2019-02-25T02:50:00.609Z,102436.20
2019-02-25T02:52:27.620Z,102437.41
2019-02-25T02:54:54.696Z,102439.52
2019-02-25T02:57:21.666Z,102434.41
2019-02-25T02:59:49.010Z,102433.70
2019-02-25T03:02:16.104Z,102436.25
2019-02-25T03:04:43.042Z,102434.19
2019-02-25T03:07:09.993Z,102433.44
2019-02-25T03:09:37.006Z,102436.40
2019-02-25T03:12:03.948Z,102434.30
2019-02-25T03:14:31.182Z,102438.62
2019-02-25T03:16:58.213Z,102429.66
2019-02-25T03:19:25.206Z,102428.36
2019-02-25T03:21:54.418Z,102439.86
2019-02-25T03:24:21.384Z,102441.58
2019-02-25T03:26:48.331Z,102447.11
2019-02-25T03:29:15.511Z,102447.48
2019-02-25T03:31:42.963Z,102446.30
2019-02-25T03:34:09.917Z,102441.13
2019-02-25T03:36:36.877Z,102437.72
2019-02-25T03:39:05.712Z,102437.88
2019-02-25T03:41:32.870Z,102432.34
2019-02-25T03:43:59.872Z,102431.39
2019-02-25T03:46:26.842Z,102432.64
2019-02-25T03:48:53.832Z,102429.13
2019-02-25T03:51:20.790Z,102432.13
2019-02-25T03:53:48.104Z,102430.83
2019-02-25T03:56:15.139Z,102433.69
2019-02-25T03:58:42.079Z,102430.73
2019-02-25T04:01:09.257Z,102428.64
2019-02-25T04:03:36.413Z,102431.67
2019-02-25T04:06:03.666Z,102436.34
2019-02-25T04:08:30.696Z,102432.78
2019-02-25T04:10:57.991Z,102432.97
2019-02-25T04:13:24.952Z,102434.65
2019-02-25T04:15:52.007Z,102431.17
2019-02-25T04:18:19.314Z,102441.70
2019-02-25T04:20:46.292Z,102437.05
2019-02-25T04:23:13.261Z,102437.02
2019-02-25T04:25:40.221Z,102441.22
2019-02-25T04:28:07.163Z,102445.73
2019-02-25T04:30:34.783Z,102439.24
2019-02-25T04:33:02.120Z,102445.52
2019-02-25T04:35:29.048Z,102438.58
2019-02-25T04:37:56.217Z,102447.28
2019-02-25T04:40:23.619Z,102443.05
2019-02-25T04:42:50.609Z,102445.67
2019-02-25T04:45:17.541Z,102445.67
2019-02-25T04:47:44.483Z,102445.90
2019-02-25T04:50:12.016Z,102441.20
2019-02-25T04:52:39.017Z,102444.45
2019-02-25T04:55:06.520Z,102450.83
2019-02-25T04:57:33.763Z,102446.09
2019-02-25T05:00:00.746Z,102448.56
2019-02-25T05:02:27.693Z,102443.83
2019-02-25T05:04:54.638Z,102445.73
2019-02-25T05:07:21.640Z,102439.95
2019-02-25T05:09:48.603Z,102434.02
2019-02-25T05:12:15.944Z,102444.73
2019-02-25T05:14:42.918Z,102440.52
2019-02-25T05:17:10.035Z,102440.91
2019-02-25T05:19:37.379Z,102441.22
2019-02-25T05:22:04.369Z,102440.16
2019-02-25T05:24:31.350Z,102440.55
2019-02-25T05:26:58.291Z,102438.73
2019-02-25T05:29:25.591Z,102443.91
2019-02-25T05:31:52.516Z,102437.13
2019-02-25T05:34:19.463Z,102425.64
2019-02-25T05:36:46.865Z,102414.57
2019-02-25T05:39:13.814Z,102415.64
2019-02-25T05:41:40.805Z,102421.26
2019-02-25T05:44:08.576Z,102437.69
2019-02-25T05:46:35.719Z,102437.52
2019-02-25T05:49:02.660Z,102436.72
2019-02-25T05:51:30.100Z,102433.68
2019-02-25T05:53:57.038Z,102434.48
2019-02-25T05:56:24.042Z,102425.97
2019-02-25T05:58:51.412Z,102426.03
2019-02-25T06:01:18.379Z,102423.05
2019-02-25T06:03:45.330Z,102427.03
2019-02-25T06:06:12.294Z,102438.19
2019-02-25T06:08:39.626Z,102438.48
2019-02-25T06:11:06.601Z,102448.81
2019-02-25T06:13:34.037Z,102449.51
2019-02-25T06:16:01.010Z,102458.49
2019-02-25T06:18:27.947Z,102455.53
2019-02-25T06:20:55.320Z,102452.42
2019-02-25T06:23:22.261Z,102458.03
2019-02-25T06:25:49.210Z,102460.22
2019-02-25T06:28:16.659Z,102454.84
2019-02-25T06:30:43.593Z,102454.80
2019-02-25T06:33:10.528Z,102462.59
2019-02-25T06:35:37.481Z,102457.52
2019-02-25T06:38:04.444Z,102462.02
2019-02-25T06:40:31.382Z,102456.45
2019-02-25T06:42:58.810Z,102463.22
2019-02-25T06:45:25.853Z,102469.94
2019-02-25T06:47:52.780Z,102464.22
2019-02-25T06:50:20.781Z,102459.63
2019-02-25T06:52:47.726Z,102458.70
2019-02-25T06:55:14.896Z,102465.41
2019-02-25T06:57:42.255Z,102459.36
2019-02-25T07:00:12.305Z,102461.64
2019-02-25T07:02:40.253Z,102464.27
2019-02-25T07:05:19.671Z,102469.93
2019-02-25T07:07:51.833Z,102471.73
2019-02-25T07:10:37.498Z,102467.08
2019-02-25T07:13:22.290Z,102455.98
2019-02-25T07:16:09.357Z,102458.66
2019-02-25T07:18:58.483Z,102466.27
2019-02-25T07:21:37.953Z,102456.59
2019-02-25T07:24:17.477Z,102463.52
2019-02-25T07:26:50.771Z,102459.27
2019-02-25T07:29:32.577Z,102458.92
2019-02-25T07:32:14.964Z,102453.41
2019-02-25T07:34:47.249Z,102452.09
2019-02-25T07:37:34.040Z,102454.63
2019-02-25T07:40:13.818Z,102460.63
2019-02-25T07:43:12.855Z,102451.19
2019-02-25T07:46:02.198Z,102461.47
2019-02-25T07:48:47.456Z,102450.95
2019-02-25T07:51:49.128Z,102458.52
2019-02-25T07:54:31.319Z,102455.34
2019-02-25T07:57:20.767Z,102466.66
2019-02-25T08:00:25.851Z,102466.16
2019-02-25T08:03:18.275Z,102472.27
2019-02-25T08:06:23.572Z,102468.70
2019-02-25T08:09:17.637Z,102475.34
2019-02-25T08:12:09.194Z,102479.07
2019-02-25T08:15:09.057Z,102472.67
2019-02-25T08:17:59.317Z,102483.11
2019-02-25T08:20:44.773Z,102485.28
2019-02-25T08:23:31.835Z,102485.03
2019-02-25T08:26:16.955Z,102488.61
2019-02-25T08:28:53.459Z,102494.03
2019-02-25T08:31:58.227Z,102487.80
2019-02-25T08:34:57.349Z,102491.05
2019-02-25T08:37:54.283Z,102484.91
2019-02-25T08:40:40.849Z,102484.61
2019-02-25T08:43:22.557Z,102491.58
2019-02-25T08:46:00.861Z,102496.76
2019-02-25T08:48:34.397Z,102496.28
2019-02-25T08:51:01.365Z,102490.55
2019-02-25T08:53:29.907Z,102496.45
2019-02-25T08:55:58.365Z,102497.40
2019-02-25T08:58:25.597Z,102494.84
2019-02-25T09:00:52.549Z,102498.73
2019-02-25T09:03:19.483Z,102495.84
2019-02-25T09:05:46.513Z,102500.64
2019-02-25T09:08:13.816Z,102488.36
2019-02-25T09:10:40.864Z,102496.52
2019-02-25T09:13:08.068Z,102487.70
2019-02-25T09:15:35.008Z,102488.37
2019-02-25T09:18:00.974Z,102484.33
2019-02-25T09:20:27.968Z,102494.66
2019-02-25T09:22:54.904Z,102489.52
2019-02-25T09:25:21.849Z,102497.17
2019-02-25T09:27:48.899Z,102488.58
2019-02-25T09:30:16.163Z,102484.13
2019-02-25T09:32:43.433Z,102478.17
2019-02-25T09:35:11.124Z,102476.16
2019-02-25T09:37:38.209Z,102480.64
2019-02-25T09:40:07.072Z,102481.45
2019-02-25T09:42:34.838Z,102482.32
2019-02-25T09:45:01.802Z,102482.63
2019-02-25T09:47:29.358Z,102475.45
2019-02-25T09:49:56.656Z,102485.75
2019-02-25T09:52:23.579Z,102485.77
2019-02-25T09:54:50.527Z,102480.53
2019-02-25T09:57:17.935Z,102480.36
2019-02-25T09:59:44.896Z,102472.55
2019-02-25T10:02:11.836Z,102464.70
2019-02-25T10:04:39.210Z,102462.36
2019-02-25T10:07:06.136Z,102462.19
2019-02-25T10:09:33.104Z,102460.62
2019-02-25T10:12:01.503Z,102446.97
2019-02-25T10:14:28.472Z,102448.05
2019-02-25T10:16:55.419Z,102442.27
2019-02-25T10:19:22.380Z,102440.70
2019-02-25T10:21:49.333Z,102434.42
2019-02-25T10:24:16.335Z,102431.41
2019-02-25T10:26:43.736Z,102430.95
2019-02-25T10:29:10.685Z,102430.27
2019-02-25T10:31:39.572Z,102428.83
2019-02-25T10:34:07.681Z,102429.14
2019-02-25T10:36:36.388Z,102421.41
2019-02-25T10:39:09.082Z,102416.79
2019-02-25T10:41:37.169Z,102420.45
2019-02-25T10:44:04.852Z,102417.65
2019-02-25T10:46:32.973Z,102412.35
2019-02-25T10:49:10.958Z,102414.89
2019-02-25T10:51:28.894Z,102420.22
2019-02-25T10:53:55.882Z,102422.67
2019-02-25T10:56:27.615Z,102424.96
2019-02-25T10:58:54.553Z,102428.42
2019-02-25T11:01:22.361Z,102433.03
2019-02-25T11:03:52.189Z,102430.95
2019-02-25T11:06:19.311Z,102427.52
2019-02-25T11:08:51.176Z,102426.19
2019-02-25T11:11:23.221Z,102422.10
2019-02-25T11:13:50.837Z,102437.31
2019-02-25T11:16:19.861Z,102424.59
2019-02-25T11:18:46.702Z,102422.64
2019-02-25T11:21:13.704Z,102420.63
2019-02-25T11:23:42.900Z,102416.70
2019-02-25T11:26:09.865Z,102418.93
2019-02-25T11:28:39.180Z,102412.80
2019-02-25T11:31:05.866Z,102411.47
2019-02-25T11:33:34.357Z,102418.09
2019-02-25T11:36:01.616Z,102408.10
2019-02-25T11:38:30.514Z,102408.28
2019-02-25T11:41:31.735Z,102406.11
2019-02-25T11:44:31.033Z,102403.42
2019-02-25T11:46:57.089Z,102395.03
2019-02-25T11:49:24.033Z,102401.52
2019-02-25T11:51:50.985Z,102400.05
2019-02-25T11:54:17.982Z,102394.38
2019-02-25T11:56:45.437Z,102393.50
2019-02-25T11:59:12.387Z,102391.54
2019-02-25T12:01:39.336Z,102385.81
2019-02-25T12:04:06.686Z,102389.77
2019-02-25T12:06:33.633Z,102378.58
2019-02-25T12:09:03.104Z,102378.06
2019-02-25T12:11:32.294Z,102372.41
2019-02-25T12:13:59.252Z,102371.05
2019-02-25T12:16:26.267Z,102362.33
2019-02-25T12:18:53.594Z,102359.59
2019-02-25T12:21:20.552Z,102358.19
2019-02-25T12:23:49.579Z,102364.00
2019-02-25T12:26:16.543Z,102354.33
2019-02-25T12:28:43.906Z,102352.89
2019-02-25T12:31:11.213Z,102353.80
2019-02-25T12:33:38.203Z,102353.56
2019-02-25T12:36:05.157Z,102353.18
2019-02-25T12:38:32.131Z,102342.23
2019-02-25T12:40:59.075Z,102341.20
2019-02-25T12:43:26.081Z,102336.00
2019-02-25T12:45:54.711Z,102336.88
2019-02-25T12:48:22.814Z,102334.18
2019-02-25T12:50:49.851Z,102326.66
2019-02-25T12:53:16.889Z,102330.26
2019-02-25T12:55:43.824Z,102326.07
2019-02-25T12:58:10.870Z,102328.82
2019-02-25T13:00:37.833Z,102315.14
2019-02-25T13:03:04.819Z,102327.80
2019-02-25T13:05:31.786Z,102320.50
2019-02-25T13:07:58.813Z,102316.54
2019-02-25T13:10:26.378Z,102319.58
2019-02-25T13:12:53.568Z,102314.77
2019-02-25T13:15:20.661Z,102313.08
2019-02-25T13:17:47.988Z,102312.14
2019-02-25T13:20:15.104Z,102305.31
2019-02-25T13:22:42.398Z,102301.61
2019-02-25T13:25:11.220Z,102301.30
2019-02-25T13:27:39.370Z,102294.14
2019-02-25T13:30:09.878Z,102294.37
2019-02-25T13:32:36.831Z,102285.53
2019-02-25T13:35:03.900Z,102282.29
2019-02-25T13:37:31.000Z,102276.31
2019-02-25T13:39:59.905Z,102270.94
2019-02-25T13:42:27.042Z,102263.41
2019-02-25T13:44:54.188Z,102265.38
2019-02-25T13:47:21.605Z,102260.56
2019-02-25T13:49:49.395Z,102253.58
2019-02-25T13:52:16.362Z,102248.34
2019-02-25T13:54:43.729Z,102240.34
2019-02-25T13:57:10.723Z,102233.03
2019-02-25T13:59:37.685Z,102227.19
2019-02-25T14:02:04.925Z,102217.10
2019-02-25T14:04:32.062Z,102216.30
2019-02-25T14:06:59.341Z,102210.44
2019-02-25T14:09:26.720Z,102205.75
2019-02-25T14:11:53.961Z,102210.48
2019-02-25T14:14:20.973Z,102206.96
2019-02-25T14:16:50.009Z,102197.37
2019-02-25T14:19:17.081Z,102195.48
2019-02-25T14:21:44.256Z,102198.73
2019-02-25T14:24:13.169Z,102195.92
2019-02-25T14:26:40.104Z,102194.92
2019-02-25T14:29:07.099Z,102180.31
2019-02-25T14:31:34.320Z,102178.23
2019-02-25T14:34:01.260Z,102171.45
2019-02-25T14:36:28.376Z,102173.03
2019-02-25T14:38:56.386Z,102173.36
2019-02-25T14:41:24.655Z,102156.89
2019-02-25T14:43:53.760Z,102148.67
2019-02-25T14:46:24.356Z,102150.88
2019-02-25T14:48:50.826Z,102153.89
2019-02-25T14:51:17.990Z,102153.58
2019-02-25T14:53:46.950Z,102158.64
2019-02-25T14:56:15.727Z,102154.70
2019-02-25T14:58:43.793Z,102150.78
2019-02-25T15:01:12.072Z,102149.31
2019-02-25T15:03:39.148Z,102148.20
2019-02-25T15:06:06.189Z,102144.36
2019-02-25T15:08:37.478Z,102143.72
2019-02-25T15:11:37.765Z,102136.91
2019-02-25T15:14:05.919Z,102148.91
2019-02-25T15:16:34.509Z,102144.34
2019-02-25T15:19:01.561Z,102154.81
2019-02-25T15:21:28.614Z,102151.83
2019-02-25T15:24:00.058Z,102154.36
2019-02-25T15:26:28.073Z,102150.68
2019-02-25T15:29:02.853Z,102146.30
2019-02-25T15:31:35.607Z,102147.38
2019-02-25T15:34:05.179Z,102147.12
2019-02-25T15:36:32.419Z,102144.75
2019-02-25T15:38:59.596Z,102146.78
2019-02-25T15:41:26.540Z,102144.84
2019-02-25T15:43:59.828Z,102145.19
2019-02-25T15:46:27.032Z,102138.60
2019-02-25T15:48:59.690Z,102141.18
2019-02-25T15:51:28.479Z,102143.75
2019-02-25T15:53:59.817Z,102143.52
2019-02-25T15:56:31.933Z,102140.05
2019-02-25T15:59:08.270Z,102144.00
2019-02-25T16:01:37.032Z,102142.13
2019-02-25T16:04:04.680Z,102140.81
2019-02-25T16:06:34.065Z,102137.72
2019-02-25T16:09:03.545Z,102137.30
2019-02-25T16:11:36.652Z,102140.49
2019-02-25T16:14:04.493Z,102129.87
2019-02-25T16:16:33.463Z,102135.49
2019-02-25T16:19:00.586Z,102134.27
2019-02-25T16:21:27.612Z,102143.50
2019-02-25T16:23:54.966Z,102135.62
2019-02-25T16:26:22.609Z,102136.11
2019-02-25T16:28:50.496Z,102134.29
2019-02-25T16:31:19.988Z,102139.36
2019-02-25T16:33:49.084Z,102132.36
2019-02-25T16:36:21.904Z,102133.05
2019-02-25T16:38:55.719Z,102133.97
2019-02-25T16:41:27.364Z,102133.81
2019-02-25T16:43:51.228Z,102137.96
2019-02-25T16:46:20.209Z,102141.16
2019-02-25T16:48:48.405Z,102133.91
2019-02-25T16:51:18.934Z,102135.66
2019-02-25T16:53:49.804Z,102135.73
2019-02-25T16:56:15.072Z,102142.33
2019-02-25T16:58:42.376Z,102149.33
2019-02-25T17:01:10.941Z,102147.23
2019-02-25T17:03:39.751Z,102150.41
2019-02-25T17:06:09.209Z,102153.54
2019-02-25T17:08:36.513Z,102154.09
2019-02-25T17:11:04.132Z,102153.02
2019-02-25T17:13:33.070Z,102154.58
2019-02-25T17:16:02.742Z,102150.48
2019-02-25T17:18:31.252Z,102161.55
2019-02-25T17:20:59.084Z,102160.27
2019-02-25T17:23:32.302Z,102168.80
2019-02-25T17:26:01.810Z,102166.83
2019-02-25T17:28:28.778Z,102166.45
2019-02-25T17:30:56.351Z,102172.53
2019-02-25T17:33:24.118Z,102170.33
2019-02-25T17:35:54.084Z,102171.95
2019-02-25T17:38:23.032Z,102179.48
2019-02-25T17:40:50.618Z,102182.14
2019-02-25T17:43:18.441Z,102181.92
2019-02-25T17:45:47.422Z,102181.73
2019-02-25T17:48:18.662Z,102187.45
2019-02-25T17:50:46.650Z,102187.46
2019-02-25T17:53:14.004Z,102193.94
2019-02-25T17:55:41.397Z,102194.33
2019-02-25T17:58:08.478Z,102187.88
2019-02-25T18:00:39.436Z,102186.09
2019-02-25T18:03:07.184Z,102190.75
2019-02-25T18:05:35.941Z,102192.80
2019-02-25T18:08:05.313Z,102195.14
2019-02-25T18:10:38.168Z,102197.02
2019-02-25T18:13:10.436Z,102197.42
2019-02-25T18:15:37.619Z,102197.02
2019-02-25T18:18:07.044Z,102196.20
2019-02-25T18:20:34.019Z,102196.95
2019-02-25T18:23:01.521Z,102197.99
2019-02-25T18:25:28.644Z,102200.34
2019-02-25T18:27:55.625Z,102200.47
2019-02-25T18:30:25.175Z,102202.86
2019-02-25T18:32:52.660Z,102206.17
2019-02-25T18:35:22.845Z,102201.41
2019-02-25T18:37:49.866Z,102205.25
2019-02-25T18:40:18.997Z,102206.28
2019-02-25T18:42:46.274Z,102207.08
2019-02-25T18:45:16.009Z,102207.83
2019-02-25T18:47:43.491Z,102201.53
2019-02-25T18:50:15.178Z,102191.86
2019-02-25T18:52:41.931Z,102195.20
2019-02-25T18:55:11.150Z,102207.20
2019-02-25T18:57:41.701Z,102214.29
2019-02-25T19:00:13.377Z,102213.94
2019-02-25T19:02:42.983Z,102220.95
2019-02-25T19:05:13.606Z,102212.11
2019-02-25T19:07:39.042Z,102214.84
2019-02-25T19:10:06.277Z,102215.47
2019-02-25T19:12:33.665Z,102222.25
2019-02-25T19:15:03.092Z,102211.16
2019-02-25T19:17:31.954Z,102213.97
2019-02-25T19:19:59.105Z,102207.78
2019-02-25T19:22:27.261Z,102216.87
2019-02-25T19:24:54.202Z,102216.39
2019-02-25T19:27:21.230Z,102216.56
2019-02-25T19:29:49.380Z,102214.94
2019-02-25T19:32:20.935Z,102215.25
2019-02-25T19:34:54.035Z,102216.66
2019-02-25T19:37:21.073Z,102207.94
2019-02-25T19:39:50.420Z,102207.86
2019-02-25T19:42:18.149Z,102211.67
2019-02-25T19:44:46.673Z,102217.36
2019-02-25T19:47:14.378Z,102217.47
2019-02-25T19:49:43.560Z,102218.82
2019-02-25T19:52:12.157Z,102217.06
2019-02-25T19:54:40.858Z,102217.55
2019-02-25T19:57:11.522Z,102227.64
2019-02-25T19:59:38.578Z,102222.80
2019-02-25T20:02:07.910Z,102225.48
2019-02-25T20:04:35.964Z,102225.95
2019-02-25T20:07:04.235Z,102227.05
2019-02-25T20:09:31.566Z,102225.31
2019-02-25T20:12:01.339Z,102218.55
2019-02-25T20:14:31.338Z,102221.59
2019-02-25T20:16:58.191Z,102225.31
2019-02-25T20:19:25.183Z,102217.05
2019-02-25T20:21:54.709Z,102220.94
2019-02-25T20:24:23.801Z,102219.97
2019-02-25T20:26:55.086Z,102224.59
2019-02-25T20:29:20.692Z,102223.05
2019-02-25T20:31:49.622Z,102221.45
2019-02-25T20:34:20.331Z,102217.52
2019-02-25T20:36:46.477Z,102217.64
2019-02-25T20:39:14.380Z,102213.83
2019-02-25T20:41:43.277Z,102220.85
2019-02-25T20:44:10.655Z,102218.34
2019-02-25T20:46:38.661Z,102221.25
2019-02-25T20:49:06.152Z,102214.12
2019-02-25T20:51:33.788Z,102211.65
2019-02-25T20:54:02.054Z,102209.56
2019-02-25T20:56:31.023Z,102209.99
2019-02-25T20:58:58.982Z,102216.73
2019-02-25T21:01:27.494Z,102214.63
2019-02-25T21:03:55.252Z,102206.09
2019-02-25T21:06:24.261Z,102202.52
2019-02-25T21:08:51.238Z,102204.08
2019-02-25T21:11:18.201Z,102201.16
2019-02-25T21:13:47.578Z,102197.64
2019-02-25T21:16:16.183Z,102196.13
2019-02-25T21:18:44.391Z,102199.70
2019-02-25T21:21:14.415Z,102192.25
2019-02-25T21:23:41.442Z,102199.56
2019-02-25T21:26:09.318Z,102189.30
2019-02-25T21:28:38.130Z,102188.20
2019-02-25T21:31:10.989Z,102182.66
2019-02-25T21:33:35.032Z,102187.51
2019-02-25T21:36:02.366Z,102183.63
2019-02-25T21:38:32.837Z,102186.28
2019-02-25T21:40:59.859Z,102189.05
2019-02-25T21:43:29.078Z,102178.34
2019-02-25T21:45:56.647Z,102180.67
2019-02-25T21:48:27.520Z,102178.02
2019-02-25T21:50:54.214Z,102175.73
2019-02-25T21:53:23.056Z,102182.09
2019-02-25T21:55:51.101Z,102182.87
2019-02-25T21:58:21.264Z,102176.25
2019-02-25T22:00:47.851Z,102173.09
2019-02-25T22:03:17.323Z,102164.77
2019-02-25T22:05:44.047Z,102169.59
2019-02-25T22:08:11.005Z,102170.70
2019-02-25T22:10:39.859Z,102171.56
2019-02-25T22:13:11.691Z,102167.73
2019-02-25T22:15:40.794Z,102174.05
2019-02-25T22:18:11.440Z,102158.70
2019-02-25T22:20:39.836Z,102160.23
2019-02-25T22:23:08.043Z,102155.12
2019-02-25T22:25:35.227Z,102161.19
2019-02-25T22:28:07.582Z,102160.25
2019-02-25T22:30:34.582Z,102168.16
2019-02-25T22:33:03.005Z,102168.50
2019-02-25T22:35:33.247Z,102164.12
2019-02-25T22:38:00.514Z,102166.61
2019-02-25T22:40:30.080Z,102164.67
2019-02-25T22:42:58.908Z,102167.69
2019-02-25T22:45:27.892Z,102163.42
2019-02-25T22:47:54.844Z,102163.59
2019-02-25T22:50:21.993Z,102167.60
2019-02-25T22:52:51.607Z,102169.36
2019-02-25T22:55:20.187Z,102167.95
2019-02-25T22:57:50.911Z,102168.35
2019-02-25T23:00:27.998Z,102170.85
2019-02-25T23:02:56.915Z,102163.38
2019-02-25T23:05:25.520Z,102166.13
2019-02-25T23:07:54.558Z,102167.06
2019-02-25T23:10:24.004Z,102160.22
2019-02-25T23:12:50.734Z,102159.16
2019-02-25T23:15:18.298Z,102158.42
2019-02-25T23:17:46.598Z,102163.90
2019-02-25T23:20:13.572Z,102167.88
2019-02-25T23:22:40.549Z,102169.38
2019-02-25T23:25:08.081Z,102168.16
2019-02-25T23:27:36.618Z,102166.25
2019-02-25T23:30:08.413Z,102162.52
2019-02-25T23:32:33.817Z,102175.26
2019-02-25T23:35:00.803Z,102170.62
2019-02-25T23:37:27.785Z,102172.36
2019-02-25T23:39:54.729Z,102174.88
2019-02-25T23:42:21.673Z,102175.80
2019-02-25T23:44:48.675Z,102175.86
2019-02-25T23:47:15.714Z,102186.66
2019-02-25T23:49:43.860Z,102178.13
2019-02-25T23:52:12.844Z,102180.96
2019-02-25T23:54:43.370Z,102179.44
2019-02-25T23:57:08.778Z,102176.81
2019-02-25T23:59:36.093Z,102172.04
